sensor_id;sensor_type;location;lat;lon;timestamp;pressure;altitude;pressure_sealevel;temperature;humidity
14790;BME280;7486;51.010;10.366;2024-03-06T00:02:27;98412.34;;;2.41;88.85
14790;BME280;7486;51.010;10.366;2024-03-06T00:05:13;98433.41;;;2.57;88.43
14790;BME280;7486;51.010;10.366;2024-03-06T00:07:58;98431.09;;;2.54;88.39
14790;BME280;7486;51.010;10.366;2024-03-06T00:10:44;98423.34;;;2.62;88.43
14790;BME280;7486;51.010;10.366;2024-03-06T00:13:29;98420.28;;;2.67;87.61
14790;BME280;7486;51.010;10.366;2024-03-06T00:16:16;98434.31;;;2.84;87.03
14790;BME280;7486;51.010;10.366;2024-03-06T00:19:04;98425.13;;;2.80;87.51
14790;BME280;7486;51.010;10.366;2024-03-06T00:21:50;98439.88;;;2.89;87.32
14790;BME280;7486;51.010;10.366;2024-03-06T00:24:36;98447.41;;;2.66;86.47
14790;BME280;7486;51.010;10.366;2024-03-06T00:27:21;98449.63;;;2.43;88.61
14790;BME280;7486;51.010;10.366;2024-03-06T00:30:08;98454.69;;;2.27;89.58
14790;BME280;7486;51.010;10.366;2024-03-06T00:32:54;98457.03;;;2.48;90.45
14790;BME280;7486;51.010;10.366;2024-03-06T00:35:43;98465.59;;;2.40;90.09
14790;BME280;7486;51.010;10.366;2024-03-06T00:38:28;98458.00;;;2.64;88.53
14790;BME280;7486;51.010;10.366;2024-03-06T00:41:13;98446.78;;;2.54;87.90
14790;BME280;7486;51.010;10.366;2024-03-06T00:43:59;98462.47;;;2.54;88.52
14790;BME280;7486;51.010;10.366;2024-03-06T00:46:44;98471.53;;;2.60;87.87
14790;BME280;7486;51.010;10.366;2024-03-06T00:49:30;98472.09;;;2.54;88.26
14790;BME280;7486;51.010;10.366;2024-03-06T00:52:15;98469.34;;;2.55;87.31
14790;BME280;7486;51.010;10.366;2024-03-06T00:55:01;98463.22;;;2.47;87.36
14790;BME280;7486;51.010;10.366;2024-03-06T00:57:46;98471.13;;;2.37;87.89
14790;BME280;7486;51.010;10.366;2024-03-06T01:00:32;98481.22;;;2.32;87.74
14790;BME280;7486;51.010;10.366;2024-03-06T01:03:18;98479.66;;;2.39;88.30
14790;BME280;7486;51.010;10.366;2024-03-06T01:06:04;98466.78;;;2.28;87.99
14790;BME280;7486;51.010;10.366;2024-03-06T01:08:49;98464.28;;;2.36;88.82
14790;BME280;7486;51.010;10.366;2024-03-06T01:11:34;98464.53;;;2.33;87.97
14790;BME280;7486;51.010;10.366;2024-03-06T01:14:20;98467.56;;;2.38;87.75
14790;BME280;7486;51.010;10.366;2024-03-06T01:17:06;98476.75;;;2.42;88.06
14790;BME280;7486;51.010;10.366;2024-03-06T01:19:52;98475.09;;;2.41;87.73
14790;BME280;7486;51.010;10.366;2024-03-06T01:22:37;98473.16;;;2.43;87.81
14790;BME280;7486;51.010;10.366;2024-03-06T01:25:23;98475.31;;;2.48;87.34
14790;BME280;7486;51.010;10.366;2024-03-06T01:28:09;98471.06;;;2.29;87.43
14790;BME280;7486;51.010;10.366;2024-03-06T01:30:55;98483.03;;;2.49;87.67
14790;BME280;7486;51.010;10.366;2024-03-06T01:33:41;98478.59;;;2.68;87.00
14790;BME280;7486;51.010;10.366;2024-03-06T01:36:26;98464.50;;;2.43;86.81
14790;BME280;7486;51.010;10.366;2024-03-06T01:39:12;98469.13;;;2.31;87.03
14790;BME280;7486;51.010;10.366;2024-03-06T01:41:57;98475.75;;;2.43;87.73
14790;BME280;7486;51.010;10.366;2024-03-06T01:44:43;98486.94;;;2.18;88.25
14790;BME280;7486;51.010;10.366;2024-03-06T01:47:29;98486.25;;;1.89;90.49
14790;BME280;7486;51.010;10.366;2024-03-06T01:50:14;98474.81;;;1.62;91.21
14790;BME280;7486;51.010;10.366;2024-03-06T01:53:00;98482.00;;;1.88;92.06
14790;BME280;7486;51.010;10.366;2024-03-06T01:55:47;98491.09;;;1.84;92.01
14790;BME280;7486;51.010;10.366;2024-03-06T01:58:33;98493.06;;;2.27;90.53
14790;BME280;7486;51.010;10.366;2024-03-06T02:01:21;98480.31;;;2.41;89.09
14790;BME280;7486;51.010;10.366;2024-03-06T02:04:08;98463.44;;;2.36;88.40
14790;BME280;7486;51.010;10.366;2024-03-06T02:06:55;98499.22;;;2.71;87.96
14790;BME280;7486;51.010;10.366;2024-03-06T02:09:40;98477.84;;;2.40;87.82
14790;BME280;7486;51.010;10.366;2024-03-06T02:12:25;98491.03;;;2.65;87.90
14790;BME280;7486;51.010;10.366;2024-03-06T02:15:11;98497.00;;;2.76;87.16
14790;BME280;7486;51.010;10.366;2024-03-06T02:17:57;98494.91;;;2.61;87.31
14790;BME280;7486;51.010;10.366;2024-03-06T02:20:45;98481.00;;;2.61;86.92
14790;BME280;7486;51.010;10.366;2024-03-06T02:23:31;98498.13;;;2.91;86.53
14790;BME280;7486;51.010;10.366;2024-03-06T02:26:17;98462.63;;;2.71;86.27
14790;BME280;7486;51.010;10.366;2024-03-06T02:29:03;98496.25;;;2.83;85.57
14790;BME280;7486;51.010;10.366;2024-03-06T02:31:48;98504.84;;;2.93;85.96
14790;BME280;7486;51.010;10.366;2024-03-06T02:34:34;98498.38;;;3.05;85.76
14790;BME280;7486;51.010;10.366;2024-03-06T02:37:19;98501.38;;;3.10;84.75
14790;BME280;7486;51.010;10.366;2024-03-06T02:40:05;98500.66;;;3.00;84.44
14790;BME280;7486;51.010;10.366;2024-03-06T02:42:52;98499.00;;;2.82;84.31
14790;BME280;7486;51.010;10.366;2024-03-06T02:45:37;98497.66;;;2.78;85.01
14790;BME280;7486;51.010;10.366;2024-03-06T02:48:23;98499.22;;;2.71;85.33
14790;BME280;7486;51.010;10.366;2024-03-06T02:51:09;98503.19;;;2.75;85.60
14790;BME280;7486;51.010;10.366;2024-03-06T02:53:54;98473.53;;;2.48;86.05
14790;BME280;7486;51.010;10.366;2024-03-06T02:56:39;98501.25;;;2.59;85.76
14790;BME280;7486;51.010;10.366;2024-03-06T02:59:25;98480.13;;;2.52;86.08
14790;BME280;7486;51.010;10.366;2024-03-06T03:02:11;98496.03;;;2.59;86.10
14790;BME280;7486;51.010;10.366;2024-03-06T03:04:56;98496.34;;;2.56;85.89
14790;BME280;7486;51.010;10.366;2024-03-06T03:07:42;98496.63;;;2.53;85.79
14790;BME280;7486;51.010;10.366;2024-03-06T03:10:27;98498.91;;;2.38;86.21
14790;BME280;7486;51.010;10.366;2024-03-06T03:13:14;98505.56;;;2.33;86.45
14790;BME280;7486;51.010;10.366;2024-03-06T03:15:59;98506.16;;;2.44;86.39
14790;BME280;7486;51.010;10.366;2024-03-06T03:18:47;98510.38;;;2.55;86.50
14790;BME280;7486;51.010;10.366;2024-03-06T03:21:33;98519.03;;;2.55;85.51
14790;BME280;7486;51.010;10.366;2024-03-06T03:24:19;98510.66;;;2.52;85.47
14790;BME280;7486;51.010;10.366;2024-03-06T03:27:05;98519.75;;;2.48;85.31
14790;BME280;7486;51.010;10.366;2024-03-06T03:29:50;98519.47;;;2.51;85.55
14790;BME280;7486;51.010;10.366;2024-03-06T03:32:37;98520.59;;;2.48;84.55
14790;BME280;7486;51.010;10.366;2024-03-06T03:35:23;98530.41;;;2.19;86.03
14790;BME280;7486;51.010;10.366;2024-03-06T03:38:08;98526.22;;;2.26;86.50
14790;BME280;7486;51.010;10.366;2024-03-06T03:40:54;98533.38;;;2.24;85.55
14790;BME280;7486;51.010;10.366;2024-03-06T03:43:40;98524.28;;;2.28;85.62
14790;BME280;7486;51.010;10.366;2024-03-06T03:46:25;98530.81;;;2.42;85.95
14790;BME280;7486;51.010;10.366;2024-03-06T03:49:12;98527.63;;;2.48;85.42
14790;BME280;7486;51.010;10.366;2024-03-06T03:51:58;98535.91;;;2.61;84.95
14790;BME280;7486;51.010;10.366;2024-03-06T03:54:44;98546.84;;;2.56;84.37
14790;BME280;7486;51.010;10.366;2024-03-06T03:57:29;98546.94;;;2.37;85.01
14790;BME280;7486;51.010;10.366;2024-03-06T04:00:14;98546.47;;;2.24;85.94
14790;BME280;7486;51.010;10.366;2024-03-06T04:03:00;98539.25;;;2.08;86.75
14790;BME280;7486;51.010;10.366;2024-03-06T04:05:49;98548.88;;;2.08;86.50
14790;BME280;7486;51.010;10.366;2024-03-06T04:08:35;98553.63;;;1.95;86.69
14790;BME280;7486;51.010;10.366;2024-03-06T04:11:21;98548.50;;;1.93;87.00
14790;BME280;7486;51.010;10.366;2024-03-06T04:14:07;98543.13;;;2.04;87.22
14790;BME280;7486;51.010;10.366;2024-03-06T04:16:53;98546.06;;;1.82;87.44
14790;BME280;7486;51.010;10.366;2024-03-06T04:19:39;98552.53;;;1.78;88.56
14790;BME280;7486;51.010;10.366;2024-03-06T04:22:24;98547.41;;;1.96;88.36
14790;BME280;7486;51.010;10.366;2024-03-06T04:25:10;98554.72;;;2.20;86.49
14790;BME280;7486;51.010;10.366;2024-03-06T04:27:56;98558.38;;;2.36;85.79
14790;BME280;7486;51.010;10.366;2024-03-06T04:30:41;98559.16;;;2.46;84.69
14790;BME280;7486;51.010;10.366;2024-03-06T04:33:27;98555.19;;;2.42;84.74
14790;BME280;7486;51.010;10.366;2024-03-06T04:36:12;98563.78;;;2.52;85.12
14790;BME280;7486;51.010;10.366;2024-03-06T04:38:58;98545.75;;;2.32;84.21
14790;BME280;7486;51.010;10.366;2024-03-06T04:41:44;98561.19;;;2.25;84.77
14790;BME280;7486;51.010;10.366;2024-03-06T04:44:33;98568.84;;;1.99;85.82
14790;BME280;7486;51.010;10.366;2024-03-06T04:47:19;98572.00;;;2.03;86.22
14790;BME280;7486;51.010;10.366;2024-03-06T04:50:09;98577.13;;;1.85;87.38
14790;BME280;7486;51.010;10.366;2024-03-06T04:52:55;98577.25;;;1.93;87.84
14790;BME280;7486;51.010;10.366;2024-03-06T04:55:40;98580.91;;;2.10;87.31
14790;BME280;7486;51.010;10.366;2024-03-06T04:58:26;98578.75;;;2.33;86.40
14790;BME280;7486;51.010;10.366;2024-03-06T05:01:12;98575.84;;;2.36;85.87
14790;BME280;7486;51.010;10.366;2024-03-06T05:03:57;98574.13;;;2.17;85.62
14790;BME280;7486;51.010;10.366;2024-03-06T05:07:00;98584.75;;;2.06;86.50
14790;BME280;7486;51.010;10.366;2024-03-06T05:10:04;98588.25;;;1.97;86.93
14790;BME280;7486;51.010;10.366;2024-03-06T05:13:07;98594.41;;;1.96;87.13
14790;BME280;7486;51.010;10.366;2024-03-06T05:16:10;98553.38;;;1.79;87.00
14790;BME280;7486;51.010;10.366;2024-03-06T05:19:14;98598.97;;;1.94;86.71
14790;BME280;7486;51.010;10.366;2024-03-06T05:22:17;98590.50;;;1.73;87.84
14790;BME280;7486;51.010;10.366;2024-03-06T05:25:20;98547.25;;;1.60;88.11
14790;BME280;7486;51.010;10.366;2024-03-06T05:28:23;98593.13;;;2.09;86.75
14790;BME280;7486;51.010;10.366;2024-03-06T05:31:26;98599.78;;;2.04;86.51
14790;BME280;7486;51.010;10.366;2024-03-06T05:34:29;98603.22;;;2.04;86.64
14790;BME280;7486;51.010;10.366;2024-03-06T05:37:32;98609.88;;;2.17;86.52
14790;BME280;7486;51.010;10.366;2024-03-06T05:40:35;98611.41;;;2.19;86.16
14790;BME280;7486;51.010;10.366;2024-03-06T05:43:38;98605.28;;;2.01;88.10
14790;BME280;7486;51.010;10.366;2024-03-06T05:46:41;98615.28;;;2.15;87.40
14790;BME280;7486;51.010;10.366;2024-03-06T05:49:45;98620.63;;;2.13;86.52
14790;BME280;7486;51.010;10.366;2024-03-06T05:52:48;98624.66;;;2.08;86.46
14790;BME280;7486;51.010;10.366;2024-03-06T05:55:52;98625.28;;;2.29;86.27
14790;BME280;7486;51.010;10.366;2024-03-06T05:58:55;98638.88;;;2.33;86.01
14790;BME280;7486;51.010;10.366;2024-03-06T06:01:40;98636.28;;;2.23;85.89
14790;BME280;7486;51.010;10.366;2024-03-06T06:04:26;98635.59;;;2.21;86.26
14790;BME280;7486;51.010;10.366;2024-03-06T06:07:12;98644.28;;;2.22;86.27
14790;BME280;7486;51.010;10.366;2024-03-06T06:09:57;98642.44;;;1.95;86.51
14790;BME280;7486;51.010;10.366;2024-03-06T06:12:43;98659.06;;;1.94;86.74
14790;BME280;7486;51.010;10.366;2024-03-06T06:15:28;98659.59;;;1.97;87.51
14790;BME280;7486;51.010;10.366;2024-03-06T06:18:14;98657.13;;;1.96;86.76
14790;BME280;7486;51.010;10.366;2024-03-06T06:21:21;98670.19;;;1.96;87.94
14790;BME280;7486;51.010;10.366;2024-03-06T06:24:06;98660.69;;;2.04;87.74
14790;BME280;7486;51.010;10.366;2024-03-06T06:26:52;98678.16;;;2.04;87.59
14790;BME280;7486;51.010;10.366;2024-03-06T06:29:38;98684.78;;;1.98;87.75
14790;BME280;7486;51.010;10.366;2024-03-06T06:32:23;98669.28;;;1.78;87.53
14790;BME280;7486;51.010;10.366;2024-03-06T06:35:09;98689.47;;;1.76;88.63
14790;BME280;7486;51.010;10.366;2024-03-06T06:37:55;98656.63;;;1.44;88.38
14790;BME280;7486;51.010;10.366;2024-03-06T06:40:41;98691.22;;;1.27;90.02
14790;BME280;7486;51.010;10.366;2024-03-06T06:43:26;98700.16;;;1.34;91.41
14790;BME280;7486;51.010;10.366;2024-03-06T06:46:12;98692.34;;;1.34;90.72
14790;BME280;7486;51.010;10.366;2024-03-06T06:48:58;98708.66;;;1.17;91.92
14790;BME280;7486;51.010;10.366;2024-03-06T06:51:44;98712.25;;;1.35;91.11
14790;BME280;7486;51.010;10.366;2024-03-06T06:54:30;98709.22;;;1.30;90.88
14790;BME280;7486;51.010;10.366;2024-03-06T06:57:16;98712.53;;;1.23;91.26
14790;BME280;7486;51.010;10.366;2024-03-06T07:00:03;98655.09;;;1.03;91.10
14790;BME280;7486;51.010;10.366;2024-03-06T07:02:50;98649.19;;;1.01;90.26
14790;BME280;7486;51.010;10.366;2024-03-06T07:05:36;98711.72;;;1.32;90.14
14790;BME280;7486;51.010;10.366;2024-03-06T07:08:23;98720.75;;;1.18;91.57
14790;BME280;7486;51.010;10.366;2024-03-06T07:11:09;98724.59;;;1.24;90.93
14790;BME280;7486;51.010;10.366;2024-03-06T07:13:54;98721.59;;;1.28;91.59
14790;BME280;7486;51.010;10.366;2024-03-06T07:16:44;98701.91;;;1.05;91.63
14790;BME280;7486;51.010;10.366;2024-03-06T07:19:29;98729.16;;;1.31;91.59
14790;BME280;7486;51.010;10.366;2024-03-06T07:22:16;98738.38;;;1.45;91.14
14790;BME280;7486;51.010;10.366;2024-03-06T07:25:02;98731.09;;;1.48;90.55
14790;BME280;7486;51.010;10.366;2024-03-06T07:27:48;98740.03;;;1.36;90.24
14790;BME280;7486;51.010;10.366;2024-03-06T07:30:34;98726.00;;;1.37;91.14
14790;BME280;7486;51.010;10.366;2024-03-06T07:33:19;98749.09;;;1.51;90.71
14790;BME280;7486;51.010;10.366;2024-03-06T07:36:05;98755.81;;;1.44;91.19
14790;BME280;7486;51.010;10.366;2024-03-06T07:38:51;98753.34;;;1.33;91.59
14790;BME280;7486;51.010;10.366;2024-03-06T07:41:36;98756.66;;;1.54;92.47
14790;BME280;7486;51.010;10.366;2024-03-06T07:44:22;98755.56;;;1.57;91.68
14790;BME280;7486;51.010;10.366;2024-03-06T07:47:08;98759.25;;;1.45;92.25
14790;BME280;7486;51.010;10.366;2024-03-06T07:49:54;98754.97;;;1.44;92.44
14790;BME280;7486;51.010;10.366;2024-03-06T07:52:40;98761.03;;;1.35;92.90
14790;BME280;7486;51.010;10.366;2024-03-06T07:55:25;98765.56;;;1.33;93.10
14790;BME280;7486;51.010;10.366;2024-03-06T07:58:11;98773.81;;;1.38;93.40
14790;BME280;7486;51.010;10.366;2024-03-06T08:00:56;98767.63;;;1.39;93.45
14790;BME280;7486;51.010;10.366;2024-03-06T08:03:42;98732.72;;;1.30;93.25
14790;BME280;7486;51.010;10.366;2024-03-06T08:06:28;98774.97;;;1.74;92.23
14790;BME280;7486;51.010;10.366;2024-03-06T08:09:14;98783.75;;;1.82;91.33
14790;BME280;7486;51.010;10.366;2024-03-06T08:11:59;98777.00;;;1.89;91.38
14790;BME280;7486;51.010;10.366;2024-03-06T08:14:45;98777.56;;;2.02;92.41
14790;BME280;7486;51.010;10.366;2024-03-06T08:17:32;98706.34;;;1.72;91.97
14790;BME280;7486;51.010;10.366;2024-03-06T08:20:18;98788.69;;;2.14;92.83
14790;BME280;7486;51.010;10.366;2024-03-06T08:23:04;98782.22;;;2.37;92.66
14790;BME280;7486;51.010;10.366;2024-03-06T08:25:49;98786.44;;;2.57;91.18
14790;BME280;7486;51.010;10.366;2024-03-06T08:28:36;98754.69;;;2.43;89.70
14790;BME280;7486;51.010;10.366;2024-03-06T08:31:22;98794.28;;;2.67;89.59
14790;BME280;7486;51.010;10.366;2024-03-06T08:34:08;98792.50;;;2.48;90.95
14790;BME280;7486;51.010;10.366;2024-03-06T08:36:54;98797.69;;;2.68;89.86
14790;BME280;7486;51.010;10.366;2024-03-06T08:39:39;98800.66;;;2.36;91.75
14790;BME280;7486;51.010;10.366;2024-03-06T08:42:25;98720.53;;;1.98;92.18
14790;BME280;7486;51.010;10.366;2024-03-06T08:45:11;98806.81;;;2.63;90.64
14790;BME280;7486;51.010;10.366;2024-03-06T08:47:56;98800.69;;;2.82;88.86
14790;BME280;7486;51.010;10.366;2024-03-06T08:50:42;98807.94;;;2.88;86.36
14790;BME280;7486;51.010;10.366;2024-03-06T08:53:27;98813.63;;;2.84;88.01
14790;BME280;7486;51.010;10.366;2024-03-06T08:56:13;98820.06;;;2.89;89.61
14790;BME280;7486;51.010;10.366;2024-03-06T08:58:58;98810.59;;;2.79;87.77
14790;BME280;7486;51.010;10.366;2024-03-06T09:01:44;98765.22;;;2.60;87.59
14790;BME280;7486;51.010;10.366;2024-03-06T09:04:30;98819.94;;;2.81;87.75
14790;BME280;7486;51.010;10.366;2024-03-06T09:07:16;98804.88;;;2.65;87.45
14790;BME280;7486;51.010;10.366;2024-03-06T09:10:01;98810.94;;;2.56;86.72
14790;BME280;7486;51.010;10.366;2024-03-06T09:12:47;98824.03;;;2.56;87.81
14790;BME280;7486;51.010;10.366;2024-03-06T09:15:32;98830.59;;;2.70;87.68
14790;BME280;7486;51.010;10.366;2024-03-06T09:18:18;98813.81;;;2.53;86.70
14790;BME280;7486;51.010;10.366;2024-03-06T09:21:03;98822.22;;;2.67;88.13
14790;BME280;7486;51.010;10.366;2024-03-06T09:23:49;98840.34;;;2.87;86.51
14790;BME280;7486;51.010;10.366;2024-03-06T09:26:35;98842.66;;;2.90;86.83
14790;BME280;7486;51.010;10.366;2024-03-06T09:29:21;98845.81;;;2.84;87.45
14790;BME280;7486;51.010;10.366;2024-03-06T09:32:07;98842.03;;;2.69;89.93
14790;BME280;7486;51.010;10.366;2024-03-06T09:34:52;98848.81;;;2.99;89.30
14790;BME280;7486;51.010;10.366;2024-03-06T09:37:38;98838.13;;;3.29;85.89
14790;BME280;7486;51.010;10.366;2024-03-06T09:40:23;98829.03;;;3.33;85.21
14790;BME280;7486;51.010;10.366;2024-03-06T09:43:09;98833.03;;;3.28;85.05
14790;BME280;7486;51.010;10.366;2024-03-06T09:45:56;98823.13;;;3.31;83.59
14790;BME280;7486;51.010;10.366;2024-03-06T09:48:46;98829.97;;;3.42;85.55
14790;BME280;7486;51.010;10.366;2024-03-06T09:51:32;98840.31;;;3.61;83.64
14790;BME280;7486;51.010;10.366;2024-03-06T09:54:19;98859.38;;;3.53;83.49
14790;BME280;7486;51.010;10.366;2024-03-06T09:57:05;98853.38;;;3.43;83.48
14790;BME280;7486;51.010;10.366;2024-03-06T09:59:51;98865.25;;;3.38;82.54
14790;BME280;7486;51.010;10.366;2024-03-06T10:02:38;98868.25;;;3.43;82.59
14790;BME280;7486;51.010;10.366;2024-03-06T10:05:24;98867.22;;;3.53;84.25
14790;BME280;7486;51.010;10.366;2024-03-06T10:08:10;98879.13;;;3.48;82.52
14790;BME280;7486;51.010;10.366;2024-03-06T10:10:56;98876.34;;;3.49;83.57
14790;BME280;7486;51.010;10.366;2024-03-06T10:13:41;98881.03;;;3.83;81.63
14790;BME280;7486;51.010;10.366;2024-03-06T10:16:27;98873.38;;;3.89;81.85
14790;BME280;7486;51.010;10.366;2024-03-06T10:19:16;98880.91;;;3.75;81.93
14790;BME280;7486;51.010;10.366;2024-03-06T10:22:06;98885.19;;;3.76;82.18
14790;BME280;7486;51.010;10.366;2024-03-06T10:24:55;98885.31;;;4.01;81.88
14790;BME280;7486;51.010;10.366;2024-03-06T10:27:41;98890.63;;;4.09;80.81
14790;BME280;7486;51.010;10.366;2024-03-06T10:30:26;98867.53;;;3.95;81.04
14790;BME280;7486;51.010;10.366;2024-03-06T10:33:13;98894.16;;;4.00;83.08
14790;BME280;7486;51.010;10.366;2024-03-06T10:35:59;98883.06;;;4.06;83.62
14790;BME280;7486;51.010;10.366;2024-03-06T10:38:51;98891.25;;;4.21;81.94
14790;BME280;7486;51.010;10.366;2024-03-06T10:41:40;98889.13;;;4.42;78.62
14790;BME280;7486;51.010;10.366;2024-03-06T10:44:27;98889.97;;;4.43;77.60
14790;BME280;7486;51.010;10.366;2024-03-06T10:47:13;98879.41;;;4.17;77.27
14790;BME280;7486;51.010;10.366;2024-03-06T10:50:02;98868.75;;;4.01;78.68
14790;BME280;7486;51.010;10.366;2024-03-06T10:52:48;98891.09;;;4.23;79.72
14790;BME280;7486;51.010;10.366;2024-03-06T10:55:36;98892.97;;;4.30;79.68
14790;BME280;7486;51.010;10.366;2024-03-06T10:58:23;98897.69;;;4.27;79.71
14790;BME280;7486;51.010;10.366;2024-03-06T11:01:09;98899.25;;;4.20;78.43
14790;BME280;7486;51.010;10.366;2024-03-06T11:04:00;98876.31;;;3.86;78.75
14790;BME280;7486;51.010;10.366;2024-03-06T11:06:46;98904.56;;;4.10;79.78
14790;BME280;7486;51.010;10.366;2024-03-06T11:09:33;98857.06;;;3.95;82.70
14790;BME280;7486;51.010;10.366;2024-03-06T11:12:36;98916.13;;;4.17;82.06
14790;BME280;7486;51.010;10.366;2024-03-06T11:15:21;98872.81;;;4.13;79.91
14790;BME280;7486;51.010;10.366;2024-03-06T11:24:22;98908.63;;;4.57;79.02
14790;BME280;7486;51.010;10.366;2024-03-06T11:27:08;98913.34;;;4.36;76.67
14790;BME280;7486;51.010;10.366;2024-03-06T11:30:07;98912.13;;;4.13;77.81
14790;BME280;7486;51.010;10.366;2024-03-06T11:33:01;98907.88;;;3.85;78.52
14790;BME280;7486;51.010;10.366;2024-03-06T11:36:20;98911.97;;;3.70;79.67
14790;BME280;7486;51.010;10.366;2024-03-06T11:39:08;98916.38;;;3.96;79.69
14790;BME280;7486;51.010;10.366;2024-03-06T11:41:53;98909.16;;;3.81;78.66
14790;BME280;7486;51.010;10.366;2024-03-06T11:44:53;98887.50;;;3.79;79.16
14790;BME280;7486;51.010;10.366;2024-03-06T11:47:56;98914.13;;;4.01;78.46
14790;BME280;7486;51.010;10.366;2024-03-06T11:50:42;98909.69;;;3.84;77.86
14790;BME280;7486;51.010;10.366;2024-03-06T11:53:33;98889.66;;;3.65;77.85
14790;BME280;7486;51.010;10.366;2024-03-06T11:56:20;98915.16;;;3.91;78.58
14790;BME280;7486;51.010;10.366;2024-03-06T11:59:06;98920.03;;;3.86;78.25
14790;BME280;7486;51.010;10.366;2024-03-06T12:01:53;98898.44;;;4.19;78.82
14790;BME280;7486;51.010;10.366;2024-03-06T12:04:40;98911.25;;;4.57;78.46
14790;BME280;7486;51.010;10.366;2024-03-06T12:07:25;98908.63;;;4.75;77.84
14790;BME280;7486;51.010;10.366;2024-03-06T12:10:11;98908.22;;;4.70;79.72
14790;BME280;7486;51.010;10.366;2024-03-06T12:12:57;98875.59;;;4.73;76.53
14790;BME280;7486;51.010;10.366;2024-03-06T12:15:45;98895.69;;;5.07;75.62
14790;BME280;7486;51.010;10.366;2024-03-06T12:18:31;98906.06;;;5.09;73.03
14790;BME280;7486;51.010;10.366;2024-03-06T12:21:17;98908.47;;;5.20;72.98
14790;BME280;7486;51.010;10.366;2024-03-06T12:24:05;98899.53;;;5.13;73.19
14790;BME280;7486;51.010;10.366;2024-03-06T12:27:04;98892.34;;;5.15;77.38
14790;BME280;7486;51.010;10.366;2024-03-06T12:29:52;98904.66;;;5.48;71.21
14790;BME280;7486;51.010;10.366;2024-03-06T12:32:41;98906.31;;;5.49;73.47
14790;BME280;7486;51.010;10.366;2024-03-06T12:35:27;98903.63;;;5.67;73.35
14790;BME280;7486;51.010;10.366;2024-03-06T12:38:15;98908.50;;;5.62;71.49
14790;BME280;7486;51.010;10.366;2024-03-06T12:41:03;98897.03;;;5.63;73.21
14790;BME280;7486;51.010;10.366;2024-03-06T12:43:49;98899.81;;;5.61;70.04
14790;BME280;7486;51.010;10.366;2024-03-06T12:46:37;98901.50;;;5.37;70.36
14790;BME280;7486;51.010;10.366;2024-03-06T12:49:22;98903.66;;;5.41;71.51
14790;BME280;7486;51.010;10.366;2024-03-06T12:52:07;98898.69;;;5.38;69.65
14790;BME280;7486;51.010;10.366;2024-03-06T12:54:53;98887.84;;;5.33;72.39
14790;BME280;7486;51.010;10.366;2024-03-06T12:57:39;98901.25;;;5.48;69.99
14790;BME280;7486;51.010;10.366;2024-03-06T13:00:25;98893.84;;;5.51;69.79
14790;BME280;7486;51.010;10.366;2024-03-06T13:03:11;98893.69;;;5.53;69.07
14790;BME280;7486;51.010;10.366;2024-03-06T13:05:56;98893.06;;;5.25;70.33
14790;BME280;7486;51.010;10.366;2024-03-06T13:08:42;98893.75;;;5.09;70.59
14790;BME280;7486;51.010;10.366;2024-03-06T13:11:27;98883.81;;;4.95;72.80
14790;BME280;7486;51.010;10.366;2024-03-06T13:14:14;98892.97;;;4.91;72.13
14790;BME280;7486;51.010;10.366;2024-03-06T13:17:00;98864.38;;;4.62;72.27
14790;BME280;7486;51.010;10.366;2024-03-06T13:19:46;98900.13;;;5.07;71.74
14790;BME280;7486;51.010;10.366;2024-03-06T13:22:31;98873.59;;;5.10;73.05
14790;BME280;7486;51.010;10.366;2024-03-06T13:25:17;98891.00;;;5.45;70.16
14790;BME280;7486;51.010;10.366;2024-03-06T13:28:03;98888.88;;;5.40;68.90
14790;BME280;7486;51.010;10.366;2024-03-06T13:30:49;98888.50;;;5.35;71.10
14790;BME280;7486;51.010;10.366;2024-03-06T13:33:35;98878.31;;;5.32;68.99
14790;BME280;7486;51.010;10.366;2024-03-06T13:36:22;98888.19;;;5.38;69.02
14790;BME280;7486;51.010;10.366;2024-03-06T13:39:08;98874.94;;;5.14;69.16
14790;BME280;7486;51.010;10.366;2024-03-06T13:41:53;98897.97;;;5.20;70.02
14790;BME280;7486;51.010;10.366;2024-03-06T13:44:39;98888.19;;;5.38;70.21
14790;BME280;7486;51.010;10.366;2024-03-06T13:47:25;98895.53;;;5.60;67.96
14790;BME280;7486;51.010;10.366;2024-03-06T13:50:12;98868.91;;;5.55;68.90
14790;BME280;7486;51.010;10.366;2024-03-06T13:52:58;98895.31;;;5.88;67.24
14790;BME280;7486;51.010;10.366;2024-03-06T13:55:44;98894.50;;;5.87;67.64
14790;BME280;7486;51.010;10.366;2024-03-06T13:58:30;98875.94;;;5.97;67.55
14790;BME280;7486;51.010;10.366;2024-03-06T14:01:16;98895.63;;;5.93;67.29
14790;BME280;7486;51.010;10.366;2024-03-06T14:04:03;98890.28;;;5.68;67.63
14790;BME280;7486;51.010;10.366;2024-03-06T14:06:50;98905.50;;;5.49;69.32
14790;BME280;7486;51.010;10.366;2024-03-06T14:09:35;98910.63;;;5.25;68.36
14790;BME280;7486;51.010;10.366;2024-03-06T14:12:21;98906.34;;;5.24;68.76
14790;BME280;7486;51.010;10.366;2024-03-06T14:15:06;98906.56;;;5.30;68.48
14790;BME280;7486;51.010;10.366;2024-03-06T14:17:52;98899.84;;;5.10;68.34
14790;BME280;7486;51.010;10.366;2024-03-06T14:20:38;98900.34;;;5.13;68.37
14790;BME280;7486;51.010;10.366;2024-03-06T14:23:23;98922.00;;;5.33;67.44
14790;BME280;7486;51.010;10.366;2024-03-06T14:26:09;98913.22;;;5.50;67.00
14790;BME280;7486;51.010;10.366;2024-03-06T14:28:57;98919.63;;;5.48;66.52
14790;BME280;7486;51.010;10.366;2024-03-06T14:31:42;98915.59;;;5.61;66.89
14790;BME280;7486;51.010;10.366;2024-03-06T14:34:28;98909.91;;;5.48;67.91
14790;BME280;7486;51.010;10.366;2024-03-06T14:37:14;98913.25;;;5.58;66.65
14790;BME280;7486;51.010;10.366;2024-03-06T14:39:59;98904.06;;;5.54;66.53
14790;BME280;7486;51.010;10.366;2024-03-06T14:42:50;98914.97;;;5.67;67.60
14790;BME280;7486;51.010;10.366;2024-03-06T14:45:39;98905.94;;;5.36;66.68
14790;BME280;7486;51.010;10.366;2024-03-06T14:48:25;98909.91;;;5.40;67.62
14790;BME280;7486;51.010;10.366;2024-03-06T14:51:13;98919.25;;;5.43;66.29
14790;BME280;7486;51.010;10.366;2024-03-06T14:53:59;98901.63;;;5.27;66.59
14790;BME280;7486;51.010;10.366;2024-03-06T14:56:44;98919.34;;;5.59;66.01
14790;BME280;7486;51.010;10.366;2024-03-06T14:59:30;98926.38;;;5.58;65.82
14790;BME280;7486;51.010;10.366;2024-03-06T15:02:16;98925.50;;;5.42;66.64
14790;BME280;7486;51.010;10.366;2024-03-06T15:05:03;98903.44;;;5.35;67.07